Time;durP1;ratioP1;P1;durP2;ratioP2;P2;SDS_P1;SDS_P2;PMS_P1;PMS_P2;Temp;Humidity;BMP_temperature;BMP_pressure;BME280_temperature;BME280_humidity;BME280_pressure;Samples;Min_cycle;Max_cycle;Signal;HPM_P1;HPM_P2
2021/08/26 00:00:18;;;;;;;;;;;;;;;;;;5096010;28;20473;-72
2021/08/26 00:06:06;;;;;;;;;;;;;;;;;;5095019;28;19919;-71
2021/08/26 00:08:53;;;;;;;;;;;;;;;;;;5093885;28;19919;-72
2021/08/26 00:11:38;;;;;;;;;;;;;;;;;;5095177;28;19939;-70
2021/08/26 00:14:24;;;;;;;;;;;;;;;;;;5097316;28;19919;-71
2021/08/26 00:17:09;;;;;;;;;;;;;;;;;;5087892;28;19923;-71
2021/08/26 00:19:53;;;;;;;;;;;;;;;;;;5099845;28;20374;-71
2021/08/26 00:22:37;;;;;;;;;;;;;;;;;;5097704;28;20303;-71
2021/08/26 00:25:22;;;;;;;;;;;;;;;;;;5089681;28;20425;-71
2021/08/26 00:28:06;;;;;;;;;;;;;;;;;;5090877;28;20402;-71
2021/08/26 00:30:50;;;;;;;;;;;;;;;;;;5095715;28;19935;-71
2021/08/26 00:33:34;;;;;;;;;;;;;;;;;;5093581;28;19919;-72
2021/08/26 00:36:18;;;;;;;;;;;;;;;;;;5099037;28;19982;-70
2021/08/26 00:39:02;;;;;;;;;;;;;;;;;;5097315;28;20464;-69
2021/08/26 00:41:47;;;;;;;;;;;;;;;;;;5095824;28;19919;-69
2021/08/26 00:44:31;;;;;;;;;;;;;;;;;;5093681;28;19918;-71
2021/08/26 00:47:15;;;;;;;;;;;;;;;;;;5096798;28;19920;-71
2021/08/26 00:49:59;;;;;;;;;;;;;;;;;;5096056;28;19927;-70
2021/08/26 00:52:46;;;;;;;;;;;;;;;;;;5094103;28;19920;-69
2021/08/26 00:55:30;;;;;;;;;;;;;;;;;;5097860;28;19919;-71
2021/08/26 00:58:14;;;;;;;;;;;;;;;;;;5086836;28;19923;-70
2021/08/26 01:00:58;;;;;;;;;;;;;;;;;;5100156;28;20378;-70
2021/08/26 01:03:44;;;;;;;;;;;;;;;;;;5093952;28;19919;-71
2021/08/26 01:06:28;;;;;;;;;;;;;;;;;;5097756;28;19919;-71
2021/08/26 01:09:14;;;;;;;;;;;;;;;;;;5094106;28;19919;-70
2021/08/26 01:11:58;;;;;;;;;;;;;;;;;;5086236;28;19919;-72
2021/08/26 01:14:43;;;;;;;;;;;;;;;;;;5096841;28;19919;-72
2021/08/26 01:17:27;;;;;;;;;;;;;;;;;;5099788;28;20400;-72
2021/08/26 01:20:11;;;;;;;;;;;;;;;;;;5079738;28;19919;-74
2021/08/26 01:22:55;;;;;;;;;;;;;;;;;;5095889;28;20292;-70
2021/08/26 01:25:40;;;;;;;;;;;;;;;;;;5099064;28;19919;-73
2021/08/26 01:28:24;;;;;;;;;;;;;;;;;;5094656;28;19923;-72
2021/08/26 01:31:08;;;;;;;;;;;;;;;;;;5096418;28;19919;-72
2021/08/26 01:33:52;;;;;;;;;;;;;;;;;;5089781;28;19919;-72
2021/08/26 01:36:36;;;;;;;;;;;;;;;;;;5090535;28;19919;-71
2021/08/26 01:39:20;;;;;;;;;;;;;;;;;;5095122;28;19939;-70
2021/08/26 01:42:04;;;;;;;;;;;;;;;;;;5091023;28;19919;-71
2021/08/26 01:44:49;;;;;;;;;;;;;;;;;;5092591;28;19920;-70
2021/08/26 01:47:33;;;;;;;;;;;;;;;;;;5094616;28;19919;-70
2021/08/26 01:50:17;;;;;;;;;;;;;;;;;;5093195;28;20394;-71
2021/08/26 01:53:01;;;;;;;;;;;;;;;;;;5091860;28;20394;-70
2021/08/26 01:55:46;;;;;;;;;;;;;;;;;;5096691;28;19935;-72
2021/08/26 01:58:31;;;;;;;;;;;;;;;;;;5094753;28;19939;-70
2021/08/26 02:01:15;;;;;;;;;;;;;;;;;;5093509;28;20287;-71
2021/08/26 02:03:59;;;;;;;;;;;;;;;;;;5089951;28;20386;-70
2021/08/26 02:06:43;;;;;;;;;;;;;;;;;;5094519;28;19978;-70
2021/08/26 02:09:28;;;;;;;;;;;;;;;;;;5090397;28;19923;-70
2021/08/26 02:12:12;;;;;;;;;;;;;;;;;;5097061;28;19979;-71
2021/08/26 02:14:56;;;;;;;;;;;;;;;;;;5090779;28;19935;-70
2021/08/26 02:17:41;;;;;;;;;;;;;;;;;;5089515;28;19930;-70
2021/08/26 02:20:26;;;;;;;;;;;;;;;;;;5085282;28;19919;-70
2021/08/26 02:23:11;;;;;;;;;;;;;;;;;;5094429;28;19927;-68
2021/08/26 02:25:55;;;;;;;;;;;;;;;;;;5094607;28;19919;-69
2021/08/26 02:28:39;;;;;;;;;;;;;;;;;;5092607;28;19919;-69
2021/08/26 02:31:23;;;;;;;;;;;;;;;;;;5096997;28;19919;-69
2021/08/26 02:34:08;;;;;;;;;;;;;;;;;;5088198;28;19923;-69
2021/08/26 02:36:52;;;;;;;;;;;;;;;;;;5093154;28;19919;-69
2021/08/26 02:39:36;;;;;;;;;;;;;;;;;;5091782;28;20295;-71
2021/08/26 02:42:21;;;;;;;;;;;;;;;;;;5091761;28;19919;-71
2021/08/26 02:45:05;;;;;;;;;;;;;;;;;;5099178;28;19919;-71
2021/08/26 02:47:49;;;;;;;;;;;;;;;;;;5098987;28;19923;-71
2021/08/26 02:50:34;;;;;;;;;;;;;;;;;;5092091;28;20283;-70
2021/08/26 02:53:18;;;;;;;;;;;;;;;;;;5097614;28;19923;-72
2021/08/26 02:56:02;;;;;;;;;;;;;;;;;;5102632;28;19979;-71
2021/08/26 02:58:47;;;;;;;;;;;;;;;;;;5098058;28;20006;-70
2021/08/26 03:01:31;;;;;;;;;;;;;;;;;;5096511;28;19920;-71
2021/08/26 03:04:15;;;;;;;;;;;;;;;;;;5095671;28;19927;-72
2021/08/26 03:07:00;;;;;;;;;;;;;;;;;;5099564;28;19926;-70
2021/08/26 03:09:44;;;;;;;;;;;;;;;;;;5087899;28;20434;-71
2021/08/26 03:12:28;;;;;;;;;;;;;;;;;;5099915;28;19935;-71
2021/08/26 03:15:13;;;;;;;;;;;;;;;;;;5096935;28;19919;-72
2021/08/26 03:17:57;;;;;;;;;;;;;;;;;;5078618;28;19923;-71
2021/08/26 03:20:42;;;;;;;;;;;;;;;;;;5101967;28;19920;-71
2021/08/26 03:23:26;;;;;;;;;;;;;;;;;;5076756;28;19935;-71
2021/08/26 03:26:11;;;;;;;;;;;;;;;;;;5091161;28;20315;-71
2021/08/26 03:28:55;;;;;;;;;;;;;;;;;;5102155;28;19919;-71
2021/08/26 03:31:40;;;;;;;;;;;;;;;;;;5101502;28;19926;-70
2021/08/26 03:34:24;;;;;;;;;;;;;;;;;;5101727;28;19919;-71
2021/08/26 03:37:09;;;;;;;;;;;;;;;;;;5095402;28;19920;-72
2021/08/26 03:39:54;;;;;;;;;;;;;;;;;;5100356;28;19927;-71
2021/08/26 03:42:38;;;;;;;;;;;;;;;;;;5097324;28;19939;-71
2021/08/26 03:45:23;;;;;;;;;;;;;;;;;;5094653;28;20283;-71
2021/08/26 03:48:08;;;;;;;;;;;;;;;;;;5094557;28;19919;-69
2021/08/26 03:50:52;;;;;;;;;;;;;;;;;;5100931;28;19919;-70
2021/08/26 03:53:36;;;;;;;;;;;;;;;;;;5095760;28;19919;-69
2021/08/26 03:56:20;;;;;;;;;;;;;;;;;;5092426;28;20398;-69
2021/08/26 03:59:04;;;;;;;;;;;;;;;;;;5099620;28;19923;-70
2021/08/26 04:01:48;;;;;;;;;;;;;;;;;;5094821;28;19923;-70
2021/08/26 04:04:33;;;;;;;;;;;;;;;;;;5094262;28;19919;-75
2021/08/26 04:07:18;;;;;;;;;;;;;;;;;;5101371;28;20299;-73
2021/08/26 04:10:03;;;;;;;;;;;;;;;;;;5101400;28;19920;-71
2021/08/26 04:12:47;;;;;;;;;;;;;;;;;;5088299;28;19918;-71
2021/08/26 04:15:32;;;;;;;;;;;;;;;;;;5086751;28;20394;-73
2021/08/26 04:18:16;;;;;;;;;;;;;;;;;;5097112;28;19923;-75
2021/08/26 04:21:00;;;;;;;;;;;;;;;;;;5092911;28;19919;-73
2021/08/26 04:23:45;;;;;;;;;;;;;;;;;;5074610;28;20029;-73
2021/08/26 04:26:29;;;;;;;;;;;;;;;;;;5085295;28;19959;-73
2021/08/26 04:29:13;;;;;;;;;;;;;;;;;;5100928;28;20300;-72
2021/08/26 04:31:58;;;;;;;;;;;;;;;;;;5091787;28;19920;-73
2021/08/26 04:34:43;;;;;;;;;;;;;;;;;;5093699;28;20518;-73
2021/08/26 04:37:29;;;;;;;;;;;;;;;;;;5080464;28;20354;-73
2021/08/26 04:40:13;;;;;;;;;;;;;;;;;;5080396;28;19919;-73
2021/08/26 04:42:57;;;;;;;;;;;;;;;;;;5076550;28;19920;-73
2021/08/26 04:45:42;;;;;;;;;;;;;;;;;;5080457;28;19923;-72
2021/08/26 04:48:26;;;;;;;;;;;;;;;;;;5073717;28;19919;-73
2021/08/26 04:51:10;;;;;;;;;;;;;;;;;;5080167;28;19945;-73
2021/08/26 04:53:55;;;;;;;;;;;;;;;;;;5090537;28;19919;-73
2021/08/26 04:56:39;;;;;;;;;;;;;;;;;;5092583;28;19936;-74
2021/08/26 04:59:24;;;;;;;;;;;;;;;;;;5095657;28;19939;-73
2021/08/26 05:02:09;;;;;;;;;;;;;;;;;;5095601;28;19923;-73
2021/08/26 05:04:53;;;;;;;;;;;;;;;;;;5093090;28;19919;-73
2021/08/26 05:07:37;;;;;;;;;;;;;;;;;;5093103;28;20284;-73
2021/08/26 05:10:21;;;;;;;;;;;;;;;;;;5096100;28;19919;-73
2021/08/26 05:13:07;;;;;;;;;;;;;;;;;;5088024;28;19919;-72
2021/08/26 05:15:51;;;;;;;;;;;;;;;;;;5096947;28;19919;-73
2021/08/26 05:18:35;;;;;;;;;;;;;;;;;;5096685;28;19923;-73
2021/08/26 05:21:19;;;;;;;;;;;;;;;;;;5094424;28;19920;-72
2021/08/26 05:24:03;;;;;;;;;;;;;;;;;;5099019;28;19919;-73
2021/08/26 05:26:48;;;;;;;;;;;;;;;;;;5094064;28;20299;-73
2021/08/26 05:29:32;;;;;;;;;;;;;;;;;;5092504;28;19927;-72
2021/08/26 05:32:16;;;;;;;;;;;;;;;;;;5097356;28;19923;-73
2021/08/26 05:35:01;;;;;;;;;;;;;;;;;;5091881;28;20398;-73
2021/08/26 05:37:45;;;;;;;;;;;;;;;;;;5094656;28;20398;-73
2021/08/26 05:40:29;;;;;;;;;;;;;;;;;;5098434;28;19923;-73
2021/08/26 05:43:13;;;;;;;;;;;;;;;;;;5094611;28;19974;-73
2021/08/26 05:45:58;;;;;;;;;;;;;;;;;;5089680;28;20327;-73
2021/08/26 05:48:42;;;;;;;;;;;;;;;;;;5091137;28;19923;-72
2021/08/26 05:51:27;;;;;;;;;;;;;;;;;;5097876;28;20276;-72
2021/08/26 05:54:10;;;;;;;;;;;;;;;;;;5099347;28;19919;-72
2021/08/26 05:56:58;;;;;;;;;;;;;;;;;;5093101;28;19919;-72
2021/08/26 05:59:43;;;;;;;;;;;;;;;;;;5096833;28;19922;-73
2021/08/26 06:02:27;;;;;;;;;;;;;;;;;;5095100;28;19919;-73
2021/08/26 06:05:11;;;;;;;;;;;;;;;;;;5099143;28;20334;-72
2021/08/26 06:07:55;;;;;;;;;;;;;;;;;;5097353;28;19919;-72
2021/08/26 06:10:39;;;;;;;;;;;;;;;;;;5099024;28;19919;-73
2021/08/26 06:13:24;;;;;;;;;;;;;;;;;;5093015;28;19919;-74
2021/08/26 06:16:08;;;;;;;;;;;;;;;;;;5093687;28;20335;-73
2021/08/26 06:18:53;;;;;;;;;;;;;;;;;;5098736;28;19923;-73
2021/08/26 06:21:37;;;;;;;;;;;;;;;;;;5081116;28;19919;-73
2021/08/26 06:24:22;;;;;;;;;;;;;;;;;;5088522;28;19919;-73
2021/08/26 06:27:06;;;;;;;;;;;;;;;;;;5087484;28;19923;-73
2021/08/26 06:29:50;;;;;;;;;;;;;;;;;;5102255;28;19919;-73
2021/08/26 06:32:34;;;;;;;;;;;;;;;;;;5099892;28;19920;-74
2021/08/26 06:35:18;;;;;;;;;;;;;;;;;;5102971;28;20414;-74
2021/08/26 06:38:02;;;;;;;;;;;;;;;;;;5096554;28;19923;-74
2021/08/26 06:40:46;;;;;;;;;;;;;;;;;;5102491;28;19919;-74
2021/08/26 06:43:31;;;;;;;;;;;;;;;;;;5091002;28;19919;-73
2021/08/26 06:46:15;;;;;;;;;;;;;;;;;;5098695;28;19919;-73
2021/08/26 06:48:59;;;;;;;;;;;;;;;;;;5099973;28;19923;-73
2021/08/26 06:51:43;;;;;;;;;;;;;;;;;;5102028;28;19919;-72
2021/08/26 06:54:28;;;;;;;;;;;;;;;;;;5092329;28;20291;-73
2021/08/26 06:57:12;;;;;;;;;;;;;;;;;;5093905;28;19945;-74
2021/08/26 06:59:56;;;;;;;;;;;;;;;;;;5095326;28;20397;-74
2021/08/26 07:02:41;;;;;;;;;;;;;;;;;;5096856;28;19919;-75
2021/08/26 07:05:26;;;;;;;;;;;;;;;;;;5100761;28;19927;-73
2021/08/26 07:08:10;;;;;;;;;;;;;;;;;;5100458;28;19919;-75
2021/08/26 07:10:54;;;;;;;;;;;;;;;;;;5102032;28;19919;-75
2021/08/26 07:13:39;;;;;;;;;;;;;;;;;;5096726;28;19923;-73
2021/08/26 07:16:24;;;;;;;;;;;;;;;;;;5096037;28;20390;-72
2021/08/26 07:19:08;;;;;;;;;;;;;;;;;;5092137;28;19923;-73
2021/08/26 07:21:52;;;;;;;;;;;;;;;;;;5096478;28;19941;-74
2021/08/26 07:24:36;;;;;;;;;;;;;;;;;;5091018;28;20287;-75
2021/08/26 07:27:20;;;;;;;;;;;;;;;;;;5096456;28;19923;-73
2021/08/26 07:30:05;;;;;;;;;;;;;;;;;;5095419;28;20403;-74
2021/08/26 07:32:49;;;;;;;;;;;;;;;;;;5088661;28;20600;-74
2021/08/26 07:35:34;;;;;;;;;;;;;;;;;;5094827;28;19926;-74
2021/08/26 07:38:18;;;;;;;;;;;;;;;;;;5097290;28;19923;-74
2021/08/26 07:41:02;;;;;;;;;;;;;;;;;;5093687;28;19919;-73
2021/08/26 07:43:47;;;;;;;;;;;;;;;;;;5095406;28;19919;-74
2021/08/26 07:46:31;;;;;;;;;;;;;;;;;;5097562;28;20295;-74
2021/08/26 07:49:15;;;;;;;;;;;;;;;;;;5094802;28;19919;-74
2021/08/26 07:51:59;;;;;;;;;;;;;;;;;;5100565;28;19935;-73
2021/08/26 07:54:43;;;;;;;;;;;;;;;;;;5098099;28;19919;-73
2021/08/26 07:57:28;;;;;;;;;;;;;;;;;;5093349;28;20311;-73
2021/08/26 08:00:12;;;;;;;;;;;;;;;;;;5097212;28;19927;-74
2021/08/26 08:02:56;;;;;;;;;;;;;;;;;;5093197;28;19920;-72
2021/08/26 08:05:40;;;;;;;;;;;;;;;;;;5101265;28;19919;-74
2021/08/26 08:08:25;;;;;;;;;;;;;;;;;;5093048;28;19919;-73
2021/08/26 08:11:09;;;;;;;;;;;;;;;;;;5097282;28;20030;-72
2021/08/26 08:13:54;;;;;;;;;;;;;;;;;;5081967;28;19962;-74
2021/08/26 08:16:38;;;;;;;;;;;;;;;;;;5094910;28;19919;-74
2021/08/26 08:19:22;;;;;;;;;;;;;;;;;;5097890;28;20288;-74
2021/08/26 08:22:06;;;;;;;;;;;;;;;;;;5086382;28;19920;-74
2021/08/26 08:24:50;;;;;;;;;;;;;;;;;;5101116;28;19923;-74
2021/08/26 08:27:34;;;;;;;;;;;;;;;;;;5093315;28;19989;-71
2021/08/26 08:30:21;;;;;;;;;;;;;;;;;;5094468;28;19919;-70
2021/08/26 08:33:05;;;;;;;;;;;;;;;;;;5093271;28;19919;-73
2021/08/26 08:35:49;;;;;;;;;;;;;;;;;;5097810;28;19923;-71
2021/08/26 08:38:33;;;;;;;;;;;;;;;;;;5099805;28;19923;-73
2021/08/26 08:41:17;;;;;;;;;;;;;;;;;;5089376;28;19919;-72
2021/08/26 08:44:02;;;;;;;;;;;;;;;;;;5096766;28;20410;-71
2021/08/26 08:46:46;;;;;;;;;;;;;;;;;;5095144;28;19920;-73
2021/08/26 08:49:31;;;;;;;;;;;;;;;;;;5088065;28;20307;-70
2021/08/26 08:52:15;;;;;;;;;;;;;;;;;;5089728;28;19919;-70
2021/08/26 08:54:59;;;;;;;;;;;;;;;;;;5084100;28;19923;-71
2021/08/26 08:57:43;;;;;;;;;;;;;;;;;;5100494;28;19935;-70
2021/08/26 09:00:27;;;;;;;;;;;;;;;;;;5083760;28;19923;-70
2021/08/26 09:03:12;;;;;;;;;;;;;;;;;;5089688;28;19919;-70
2021/08/26 09:05:56;;;;;;;;;;;;;;;;;;5092656;28;19919;-71
2021/08/26 09:08:41;;;;;;;;;;;;;;;;;;5091294;28;19920;-70
2021/08/26 09:11:27;;;;;;;;;;;;;;;;;;5092780;28;19919;-69
2021/08/26 09:14:12;;;;;;;;;;;;;;;;;;5099260;28;19927;-70
2021/08/26 09:16:58;;;;;;;;;;;;;;;;;;5093987;28;20406;-70
2021/08/26 09:19:43;;;;;;;;;;;;;;;;;;5094795;28;19986;-69
2021/08/26 09:22:27;;;;;;;;;;;;;;;;;;5093921;28;19919;-69
2021/08/26 09:25:13;;;;;;;;;;;;;;;;;;5093433;28;20287;-69
2021/08/26 09:27:57;;;;;;;;;;;;;;;;;;5094895;28;19927;-71
2021/08/26 09:30:42;;;;;;;;;;;;;;;;;;5093419;28;20303;-69
2021/08/26 09:33:26;;;;;;;;;;;;;;;;;;5092732;28;19919;-70
2021/08/26 09:36:10;;;;;;;;;;;;;;;;;;5097773;28;19923;-71
2021/08/26 09:38:54;;;;;;;;;;;;;;;;;;5089389;28;19923;-71
2021/08/26 09:41:38;;;;;;;;;;;;;;;;;;5094094;28;19919;-69
2021/08/26 09:44:22;;;;;;;;;;;;;;;;;;5096164;28;20390;-70
2021/08/26 09:47:06;;;;;;;;;;;;;;;;;;5094839;28;19962;-70
2021/08/26 09:49:50;;;;;;;;;;;;;;;;;;5088445;28;19935;-70
2021/08/26 09:52:34;;;;;;;;;;;;;;;;;;5092237;28;19986;-71
2021/08/26 09:55:18;;;;;;;;;;;;;;;;;;5099353;28;19935;-73
2021/08/26 09:58:03;;;;;;;;;;;;;;;;;;5099067;28;19920;-74
2021/08/26 10:00:48;;;;;;;;;;;;;;;;;;5098397;28;20402;-75
2021/08/26 10:03:32;;;;;;;;;;;;;;;;;;5093862;28;19919;-75
2021/08/26 10:06:17;;;;;;;;;;;;;;;;;;5099239;28;19919;-74
2021/08/26 10:09:01;;;;;;;;;;;;;;;;;;5099335;28;19935;-74
2021/08/26 10:11:45;;;;;;;;;;;;;;;;;;5098594;28;19919;-74
2021/08/26 10:14:30;;;;;;;;;;;;;;;;;;5099176;28;19943;-73
2021/08/26 10:17:15;;;;;;;;;;;;;;;;;;5099022;28;19919;-72
2021/08/26 10:19:59;;;;;;;;;;;;;;;;;;5099098;28;20390;-74
2021/08/26 10:22:43;;;;;;;;;;;;;;;;;;5095852;28;19935;-74
2021/08/26 10:25:27;;;;;;;;;;;;;;;;;;5099013;28;19919;-74
2021/08/26 10:28:11;;;;;;;;;;;;;;;;;;5098873;28;19919;-74
2021/08/26 10:30:55;;;;;;;;;;;;;;;;;;5099016;28;19919;-74
2021/08/26 10:33:40;;;;;;;;;;;;;;;;;;5093452;28;19939;-74
2021/08/26 10:36:29;;;;;;;;;;;;;;;;;;5098997;28;20398;-73
2021/08/26 10:39:14;;;;;;;;;;;;;;;;;;5098776;28;19923;-74
2021/08/26 10:42:00;;;;;;;;;;;;;;;;;;5084507;28;20359;-74
2021/08/26 10:44:44;;;;;;;;;;;;;;;;;;5087413;28;19927;-74
2021/08/26 10:47:28;;;;;;;;;;;;;;;;;;5095872;28;19919;-74
2021/08/26 10:50:12;;;;;;;;;;;;;;;;;;5098886;28;19919;-74
2021/08/26 10:52:56;;;;;;;;;;;;;;;;;;5094996;28;19927;-72
2021/08/26 10:55:40;;;;;;;;;;;;;;;;;;5098840;28;19923;-73
2021/08/26 10:58:25;;;;;;;;;;;;;;;;;;5098662;28;19923;-73
2021/08/26 11:01:09;;;;;;;;;;;;;;;;;;5098743;28;20414;-72
2021/08/26 11:03:56;;;;;;;;;;;;;;;;;;5092020;28;20403;-73
2021/08/26 11:06:40;;;;;;;;;;;;;;;;;;5098673;28;19922;-73
2021/08/26 11:09:24;;;;;;;;;;;;;;;;;;5081280;28;19935;-74
2021/08/26 11:12:08;;;;;;;;;;;;;;;;;;5078080;28;19945;-73
2021/08/26 11:14:52;;;;;;;;;;;;;;;;;;5080421;28;19919;-73
2021/08/26 11:17:37;;;;;;;;;;;;;;;;;;5102500;28;19919;-72
2021/08/26 11:20:21;;;;;;;;;;;;;;;;;;5101992;28;19923;-72
2021/08/26 11:23:05;;;;;;;;;;;;;;;;;;5097967;28;19919;-75
2021/08/26 11:25:51;;;;;;;;;;;;;;;;;;5091617;28;20299;-73
2021/08/26 11:28:37;;;;;;;;;;;;;;;;;;5102142;28;19922;-74
2021/08/26 11:31:21;;;;;;;;;;;;;;;;;;5098945;28;19919;-74
2021/08/26 11:34:06;;;;;;;;;;;;;;;;;;5101937;28;19919;-73
2021/08/26 11:36:50;;;;;;;;;;;;;;;;;;5101977;28;19939;-73
2021/08/26 11:39:37;;;;;;;;;;;;;;;;;;5099095;28;19923;-74
2021/08/26 11:42:21;;;;;;;;;;;;;;;;;;5096396;28;19919;-74
2021/08/26 11:45:06;;;;;;;;;;;;;;;;;;5097477;28;19919;-73
2021/08/26 11:47:50;;;;;;;;;;;;;;;;;;5101672;28;20394;-74
2021/08/26 11:50:34;;;;;;;;;;;;;;;;;;5097278;28;19935;-73
2021/08/26 11:53:18;;;;;;;;;;;;;;;;;;5091336;28;19919;-74
2021/08/26 11:56:03;;;;;;;;;;;;;;;;;;5099369;28;20288;-72
2021/08/26 11:58:49;;;;;;;;;;;;;;;;;;5081468;28;19923;-73
2021/08/26 12:01:33;;;;;;;;;;;;;;;;;;5094636;28;20288;-74
2021/08/26 12:04:17;;;;;;;;;;;;;;;;;;5099457;28;19926;-72
2021/08/26 12:07:01;;;;;;;;;;;;;;;;;;5101253;28;19935;-72
2021/08/26 12:09:45;;;;;;;;;;;;;;;;;;5091653;28;19920;-71
2021/08/26 12:12:30;;;;;;;;;;;;;;;;;;5094210;28;19923;-71
2021/08/26 12:15:15;;;;;;;;;;;;;;;;;;5094810;28;19919;-72
2021/08/26 12:17:59;;;;;;;;;;;;;;;;;;5088436;28;19919;-71
2021/08/26 12:20:43;;;;;;;;;;;;;;;;;;5088012;28;19923;-72
2021/08/26 12:23:27;;;;;;;;;;;;;;;;;;5094667;28;19919;-72
2021/08/26 12:26:12;;;;;;;;;;;;;;;;;;5098758;28;19939;-74
2021/08/26 12:28:56;;;;;;;;;;;;;;;;;;5101288;28;19927;-73
2021/08/26 12:31:46;;;;;;;;;;;;;;;;;;5100437;28;19920;-73
2021/08/26 12:34:30;;;;;;;;;;;;;;;;;;5100697;28;19923;-72
2021/08/26 12:37:14;;;;;;;;;;;;;;;;;;5100868;28;19920;-73
2021/08/26 12:39:58;;;;;;;;;;;;;;;;;;5100682;28;19923;-74
2021/08/26 12:42:43;;;;;;;;;;;;;;;;;;5097497;28;19919;-73
2021/08/26 12:45:27;;;;;;;;;;;;;;;;;;5100678;28;20287;-74
2021/08/26 12:48:11;;;;;;;;;;;;;;;;;;5095261;28;20402;-73
2021/08/26 12:50:55;;;;;;;;;;;;;;;;;;5093583;28;19919;-74
2021/08/26 12:53:40;;;;;;;;;;;;;;;;;;5093409;28;20132;-74
2021/08/26 12:56:25;;;;;;;;;;;;;;;;;;5093315;28;19919;-71
2021/08/26 12:59:11;;;;;;;;;;;;;;;;;;5093470;28;19927;-74
2021/08/26 13:01:56;;;;;;;;;;;;;;;;;;5093438;28;20311;-73
2021/08/26 13:04:41;;;;;;;;;;;;;;;;;;5093460;28;19920;-73
2021/08/26 13:07:25;;;;;;;;;;;;;;;;;;5093197;28;19934;-72
2021/08/26 13:10:13;;;;;;;;;;;;;;;;;;5092362;28;19919;-74
2021/08/26 13:12:57;;;;;;;;;;;;;;;;;;5090520;28;19962;-73
2021/08/26 13:15:41;;;;;;;;;;;;;;;;;;5093337;28;20032;-73
2021/08/26 13:18:25;;;;;;;;;;;;;;;;;;5093174;28;19919;-73
2021/08/26 13:21:11;;;;;;;;;;;;;;;;;;5095038;28;19923;-72
2021/08/26 13:23:55;;;;;;;;;;;;;;;;;;5092506;28;19919;-72
2021/08/26 13:26:41;;;;;;;;;;;;;;;;;;5090587;28;19927;-72
2021/08/26 13:29:25;;;;;;;;;;;;;;;;;;5092891;28;19919;-72
2021/08/26 13:32:09;;;;;;;;;;;;;;;;;;5092801;28;19919;-72
2021/08/26 13:34:53;;;;;;;;;;;;;;;;;;5096620;28;20296;-74
2021/08/26 13:37:37;;;;;;;;;;;;;;;;;;5092840;28;20469;-74
2021/08/26 13:40:22;;;;;;;;;;;;;;;;;;5091137;28;19923;-73
2021/08/26 13:43:07;;;;;;;;;;;;;;;;;;5081882;28;19920;-74
2021/08/26 13:45:51;;;;;;;;;;;;;;;;;;5090127;28;19934;-72
2021/08/26 13:48:35;;;;;;;;;;;;;;;;;;5095689;28;19919;-72
2021/08/26 13:51:19;;;;;;;;;;;;;;;;;;5097665;28;19923;-72
2021/08/26 13:54:04;;;;;;;;;;;;;;;;;;5092644;28;19919;-74
2021/08/26 13:56:48;;;;;;;;;;;;;;;;;;5092407;28;20391;-74
2021/08/26 13:59:33;;;;;;;;;;;;;;;;;;5091119;28;19923;-71
2021/08/26 14:02:18;;;;;;;;;;;;;;;;;;5081232;28;20018;-71
2021/08/26 14:05:02;;;;;;;;;;;;;;;;;;5092608;28;19920;-74
2021/08/26 14:07:46;;;;;;;;;;;;;;;;;;5098173;28;19962;-73
2021/08/26 14:10:30;;;;;;;;;;;;;;;;;;5097996;28;19923;-74
2021/08/26 14:13:14;;;;;;;;;;;;;;;;;;5092461;28;19919;-73
2021/08/26 14:15:59;;;;;;;;;;;;;;;;;;5081358;28;19926;-73
2021/08/26 14:18:43;;;;;;;;;;;;;;;;;;5090175;28;20294;-73
2021/08/26 14:21:27;;;;;;;;;;;;;;;;;;5092103;28;19920;-73
2021/08/26 14:24:12;;;;;;;;;;;;;;;;;;5092345;28;19919;-74
2021/08/26 14:26:56;;;;;;;;;;;;;;;;;;5092133;28;19986;-73
2021/08/26 14:29:40;;;;;;;;;;;;;;;;;;5098101;28;19919;-73
2021/08/26 14:32:25;;;;;;;;;;;;;;;;;;5092159;28;19919;-73
2021/08/26 14:35:09;;;;;;;;;;;;;;;;;;5092330;28;19939;-73
2021/08/26 14:37:54;;;;;;;;;;;;;;;;;;5097942;28;19919;-73
2021/08/26 14:40:38;;;;;;;;;;;;;;;;;;5092191;28;20288;-75
2021/08/26 14:43:25;;;;;;;;;;;;;;;;;;5092869;28;19919;-73
2021/08/26 14:46:09;;;;;;;;;;;;;;;;;;5092086;28;19920;-73
2021/08/26 14:48:53;;;;;;;;;;;;;;;;;;5096062;28;19927;-73
2021/08/26 14:51:39;;;;;;;;;;;;;;;;;;5095559;28;19919;-73
2021/08/26 14:54:23;;;;;;;;;;;;;;;;;;5096042;28;19919;-73
2021/08/26 14:57:07;;;;;;;;;;;;;;;;;;5101771;28;19919;-73
2021/08/26 14:59:52;;;;;;;;;;;;;;;;;;5095850;28;19923;-73
2021/08/26 15:02:36;;;;;;;;;;;;;;;;;;5095830;28;19919;-74
2021/08/26 15:05:21;;;;;;;;;;;;;;;;;;5095711;28;20322;-73
2021/08/26 15:08:05;;;;;;;;;;;;;;;;;;5095926;28;19919;-75
2021/08/26 15:10:49;;;;;;;;;;;;;;;;;;5101496;28;20280;-73
2021/08/26 15:13:33;;;;;;;;;;;;;;;;;;5095548;28;20410;-74
2021/08/26 15:16:17;;;;;;;;;;;;;;;;;;5095613;28;19920;-74
2021/08/26 15:19:02;;;;;;;;;;;;;;;;;;5086367;28;19994;-73
2021/08/26 15:21:46;;;;;;;;;;;;;;;;;;5095349;28;19935;-72
2021/08/26 15:24:30;;;;;;;;;;;;;;;;;;5101089;28;19922;-73
2021/08/26 15:27:15;;;;;;;;;;;;;;;;;;5095338;28;19939;-72
2021/08/26 15:29:59;;;;;;;;;;;;;;;;;;5095273;28;19919;-75
2021/08/26 15:32:43;;;;;;;;;;;;;;;;;;5095194;28;19919;-74
2021/08/26 15:35:27;;;;;;;;;;;;;;;;;;5096872;28;19919;-74
2021/08/26 15:38:11;;;;;;;;;;;;;;;;;;5087152;28;20399;-74
2021/08/26 15:40:55;;;;;;;;;;;;;;;;;;5097724;28;19923;-73
2021/08/26 15:43:40;;;;;;;;;;;;;;;;;;5094837;28;19923;-74
2021/08/26 15:46:25;;;;;;;;;;;;;;;;;;5095090;28;19919;-74
2021/08/26 15:49:10;;;;;;;;;;;;;;;;;;5101727;28;19931;-73
2021/08/26 15:51:58;;;;;;;;;;;;;;;;;;5094799;28;19939;-74
2021/08/26 15:54:53;;;;;;;;;;;;;;;;;;5094618;28;19939;-75
2021/08/26 15:58:16;;;;;;;;;;;;;;;;;;5094763;28;19982;-75
2021/08/26 16:00:50;;;;;;;;;;;;;;;;;;5101473;28;19943;-74
2021/08/26 16:03:35;;;;;;;;;;;;;;;;;;5094845;28;20426;-74
2021/08/26 16:06:19;;;;;;;;;;;;;;;;;;5094482;28;19934;-74
2021/08/26 16:09:05;;;;;;;;;;;;;;;;;;5074259;28;19919;-74
2021/08/26 16:11:49;;;;;;;;;;;;;;;;;;5074205;28;20300;-75
2021/08/26 16:14:34;;;;;;;;;;;;;;;;;;5094275;28;19919;-74
2021/08/26 16:17:18;;;;;;;;;;;;;;;;;;5088874;28;19927;-74
2021/08/26 16:20:02;;;;;;;;;;;;;;;;;;5090492;28;19923;-74
2021/08/26 16:22:46;;;;;;;;;;;;;;;;;;5086112;28;19919;-74
2021/08/26 16:25:30;;;;;;;;;;;;;;;;;;5081359;28;19939;-74
2021/08/26 16:28:14;;;;;;;;;;;;;;;;;;5090238;28;19923;-72
2021/08/26 16:30:59;;;;;;;;;;;;;;;;;;5085311;28;19919;-72
2021/08/26 16:33:43;;;;;;;;;;;;;;;;;;5082734;28;19935;-74
2021/08/26 16:36:28;;;;;;;;;;;;;;;;;;5092941;28;19920;-74
2021/08/26 16:39:12;;;;;;;;;;;;;;;;;;5100198;28;20299;-73
2021/08/26 16:41:56;;;;;;;;;;;;;;;;;;5096990;28;19919;-71
2021/08/26 16:44:42;;;;;;;;;;;;;;;;;;5100040;28;19923;-71
2021/08/26 16:47:26;;;;;;;;;;;;;;;;;;5105674;28;19927;-74
2021/08/26 16:50:10;;;;;;;;;;;;;;;;;;5086617;28;19923;-73
2021/08/26 16:52:55;;;;;;;;;;;;;;;;;;5088999;28;19919;-72
2021/08/26 16:55:41;;;;;;;;;;;;;;;;;;5097281;28;19923;-73
2021/08/26 16:58:26;;;;;;;;;;;;;;;;;;5093158;28;19919;-73
2021/08/26 17:01:10;;;;;;;;;;;;;;;;;;5093572;28;19927;-74
2021/08/26 17:03:54;;;;;;;;;;;;;;;;;;5102665;28;20287;-74
2021/08/26 17:06:38;;;;;;;;;;;;;;;;;;5096305;28;19919;-74
2021/08/26 17:09:22;;;;;;;;;;;;;;;;;;5092748;28;20303;-74
2021/08/26 17:12:07;;;;;;;;;;;;;;;;;;5100033;28;19982;-73
2021/08/26 17:14:51;;;;;;;;;;;;;;;;;;5092165;28;20396;-72
2021/08/26 17:17:36;;;;;;;;;;;;;;;;;;5089683;28;19919;-72
2021/08/26 17:20:20;;;;;;;;;;;;;;;;;;5096481;28;19927;-72
2021/08/26 17:23:04;;;;;;;;;;;;;;;;;;5092835;28;19919;-73
2021/08/26 17:25:48;;;;;;;;;;;;;;;;;;5098420;28;19919;-73
2021/08/26 17:28:32;;;;;;;;;;;;;;;;;;5105558;28;19923;-74
2021/08/26 17:31:17;;;;;;;;;;;;;;;;;;5097425;28;20300;-74
2021/08/26 17:34:02;;;;;;;;;;;;;;;;;;5095240;28;19923;-71
2021/08/26 17:36:46;;;;;;;;;;;;;;;;;;5098692;28;19919;-72
2021/08/26 17:39:31;;;;;;;;;;;;;;;;;;5091653;28;19927;-74
2021/08/26 17:42:16;;;;;;;;;;;;;;;;;;5096522;28;19919;-72
2021/08/26 17:45:00;;;;;;;;;;;;;;;;;;5092395;28;20118;-71
2021/08/26 17:47:44;;;;;;;;;;;;;;;;;;5087872;28;19919;-73
2021/08/26 17:50:28;;;;;;;;;;;;;;;;;;5112865;28;19922;-72
2021/08/26 17:53:13;;;;;;;;;;;;;;;;;;5086252;28;20397;-73
2021/08/26 17:55:57;;;;;;;;;;;;;;;;;;5092854;28;19919;-70
2021/08/26 17:58:41;;;;;;;;;;;;;;;;;;5090783;28;19939;-69
2021/08/26 18:01:26;;;;;;;;;;;;;;;;;;5097292;28;19931;-71
2021/08/26 18:04:11;;;;;;;;;;;;;;;;;;5094283;28;20411;-71
2021/08/26 18:06:55;;;;;;;;;;;;;;;;;;5092084;28;20399;-70
2021/08/26 18:09:39;;;;;;;;;;;;;;;;;;5090126;28;19924;-69
2021/08/26 18:12:23;;;;;;;;;;;;;;;;;;5090404;28;19935;-69
2021/08/26 18:15:07;;;;;;;;;;;;;;;;;;5091315;28;19919;-70
2021/08/26 18:17:51;;;;;;;;;;;;;;;;;;5091593;28;19919;-71
2021/08/26 18:20:35;;;;;;;;;;;;;;;;;;5090393;28;19923;-71
2021/08/26 18:23:20;;;;;;;;;;;;;;;;;;5092487;28;20433;-71
2021/08/26 18:26:04;;;;;;;;;;;;;;;;;;5096698;28;19919;-70
2021/08/26 18:28:49;;;;;;;;;;;;;;;;;;5095478;28;19919;-69
2021/08/26 18:31:33;;;;;;;;;;;;;;;;;;5098699;28;19923;-70
2021/08/26 18:34:17;;;;;;;;;;;;;;;;;;5096667;28;19934;-71
2021/08/26 18:37:01;;;;;;;;;;;;;;;;;;5094286;28;19920;-71
2021/08/26 18:39:45;;;;;;;;;;;;;;;;;;5090729;28;20428;-72
2021/08/26 18:42:29;;;;;;;;;;;;;;;;;;5094508;28;19935;-70
2021/08/26 18:45:13;;;;;;;;;;;;;;;;;;5095445;28;19998;-71